Time;durP1;ratioP1;P1;durP2;ratioP2;P2;SDS_P1;SDS_P2;PMS_P1;PMS_P2;Temp;Humidity;BMP_temperature;BMP_pressure;BME280_temperature;BME280_humidity;BME280_pressure;Samples;Min_cycle;Max_cycle;Signal;HPM_P1;HPM_P2
2022/11/28 00:00:40;;;;;;;;;;;6.70;99.90;;;;;;5154069;27;19911;-40
2022/11/28 00:03:05;;;;;;;;;;;6.70;99.90;;;;;;5154971;27;20271;-42
2022/11/28 00:05:31;;;;;;;;;;;6.70;99.90;;;;;;5153961;27;19958;-40
2022/11/28 00:07:56;;;;;;;;;;;6.70;99.90;;;;;;5153728;27;19998;-40
2022/11/28 00:10:22;;;;;;;;;;;6.70;99.90;;;;;;5154714;27;19907;-39
2022/11/28 00:12:47;;;;;;;;;;;6.70;99.90;;;;;;5154448;27;19907;-38
2022/11/28 00:15:13;;;;;;;;;;;6.70;99.90;;;;;;5153221;27;19976;-39
2022/11/28 00:17:38;;;;;;;;;;;6.70;99.90;;;;;;5152961;27;19922;-38
2022/11/28 00:20:04;;;;;;;;;;;6.70;99.90;;;;;;5154005;27;19915;-42
2022/11/28 00:22:29;;;;;;;;;;;6.70;99.90;;;;;;5153676;27;19907;-41
2022/11/28 00:24:55;;;;;;;;;;;6.80;99.90;;;;;;5153695;27;19911;-40
2022/11/28 00:27:21;;;;;;;;;;;6.70;99.90;;;;;;5153568;27;19912;-40
2022/11/28 00:29:46;;;;;;;;;;;6.70;99.90;;;;;;5154984;27;19907;-39
2022/11/28 00:32:11;;;;;;;;;;;6.70;99.90;;;;;;5156059;27;19951;-41
2022/11/28 00:34:37;;;;;;;;;;;6.70;99.90;;;;;;5155798;27;20388;-40
2022/11/28 00:37:02;;;;;;;;;;;6.80;99.90;;;;;;5154433;27;20416;-40
2022/11/28 00:39:28;;;;;;;;;;;6.70;99.90;;;;;;5155556;27;19915;-39
2022/11/28 00:41:54;;;;;;;;;;;6.80;99.90;;;;;;5155521;27;19911;-39
2022/11/28 00:44:19;;;;;;;;;;;6.80;99.90;;;;;;5154716;27;19907;-41
2022/11/28 00:46:44;;;;;;;;;;;6.80;99.90;;;;;;5155196;27;19933;-40
2022/11/28 00:49:10;;;;;;;;;;;6.80;99.90;;;;;;5155298;27;19914;-41
2022/11/28 00:51:36;;;;;;;;;;;6.80;99.90;;;;;;5154518;27;20023;-42
2022/11/28 00:54:02;;;;;;;;;;;6.80;99.90;;;;;;5155494;27;19907;-41
2022/11/28 00:56:29;;;;;;;;;;;6.80;99.90;;;;;;5153876;27;19970;-40
2022/11/28 00:58:55;;;;;;;;;;;6.80;99.90;;;;;;5155301;27;20464;-40
2022/11/28 01:01:23;;;;;;;;;;;6.80;99.90;;;;;;5155229;27;19907;-39
2022/11/28 01:03:49;;;;;;;;;;;6.80;99.90;;;;;;5154354;27;19999;-40
2022/11/28 01:06:23;;;;;;;;;;;6.80;99.90;;;;;;5154517;27;19911;-39
2022/11/28 01:08:49;;;;;;;;;;;6.80;99.90;;;;;;5155028;27;19911;-41
2022/11/28 01:11:15;;;;;;;;;;;6.80;99.90;;;;;;5154208;27;20251;-41
2022/11/28 01:13:40;;;;;;;;;;;6.90;99.90;;;;;;5154616;27;20426;-40
2022/11/28 01:16:06;;;;;;;;;;;6.80;99.90;;;;;;5154629;27;19926;-39
2022/11/28 01:18:32;;;;;;;;;;;6.90;99.90;;;;;;5153195;27;19914;-39
2022/11/28 01:20:57;;;;;;;;;;;6.90;99.90;;;;;;5154753;27;20332;-40
2022/11/28 01:23:23;;;;;;;;;;;6.90;99.90;;;;;;5154727;27;19907;-39
2022/11/28 01:25:48;;;;;;;;;;;6.90;99.90;;;;;;5153675;27;19960;-41
2022/11/28 01:28:13;;;;;;;;;;;6.90;99.90;;;;;;5154739;27;19951;-39
2022/11/28 01:30:39;;;;;;;;;;;6.90;99.90;;;;;;5154470;27;19907;-41
2022/11/28 01:33:04;;;;;;;;;;;6.90;99.90;;;;;;5153870;27;20281;-39
2022/11/28 01:35:30;;;;;;;;;;;6.90;99.90;;;;;;5154422;27;19919;-40
2022/11/28 01:37:55;;;;;;;;;;;6.90;99.90;;;;;;5154633;27;20308;-42
2022/11/28 01:40:21;;;;;;;;;;;6.90;99.90;;;;;;5153551;27;19942;-39
2022/11/28 01:42:46;;;;;;;;;;;6.90;99.90;;;;;;5154582;27;20340;-39
2022/11/28 01:45:21;;;;;;;;;;;6.90;99.90;;;;;;5154280;27;19907;-40
2022/11/28 01:47:47;;;;;;;;;;;6.90;99.90;;;;;;5153416;27;19907;-39
2022/11/28 01:50:12;;;;;;;;;;;6.90;99.90;;;;;;5154394;27;19907;-40
2022/11/28 01:52:39;;;;;;;;;;;6.90;99.90;;;;;;5153230;27;19919;-40
2022/11/28 01:55:05;;;;;;;;;;;6.90;99.90;;;;;;5154457;27;19915;-39
2022/11/28 01:57:31;;;;;;;;;;;6.90;99.90;;;;;;5154005;27;19919;-40
2022/11/28 02:00:06;;;;;;;;;;;6.90;99.90;;;;;;5153434;27;19911;-40
2022/11/28 02:02:36;;;;;;;;;;;6.90;99.90;;;;;;5154379;27;19907;-39
2022/11/28 02:05:02;;;;;;;;;;;6.90;99.90;;;;;;5153996;27;20312;-41
2022/11/28 02:07:27;;;;;;;;;;;6.90;99.90;;;;;;5153247;27;19912;-43
2022/11/28 02:09:53;;;;;;;;;;;6.90;99.90;;;;;;5154232;27;20373;-41
2022/11/28 02:12:30;;;;;;;;;;;6.90;99.90;;;;;;5154241;27;19934;-40
2022/11/28 02:15:15;;;;;;;;;;;6.90;99.90;;;;;;5152733;27;19922;-39
2022/11/28 02:17:59;;;;;;;;;;;6.90;99.90;;;;;;5154187;27;19915;-39
2022/11/28 02:20:50;;;;;;;;;;;6.90;99.90;;;;;;5154095;27;19911;-39
2022/11/28 02:23:32;;;;;;;;;;;6.90;99.90;;;;;;5114161;27;19907;-39
2022/11/28 02:26:10;;;;;;;;;;;7.00;99.90;;;;;;5153640;27;19915;-41
2022/11/28 02:28:41;;;;;;;;;;;7.00;99.90;;;;;;5153251;27;19936;-41
2022/11/28 02:31:21;;;;;;;;;;;7.00;99.90;;;;;;5158218;27;19915;-41
2022/11/28 02:33:52;;;;;;;;;;;7.00;99.90;;;;;;5157800;27;19947;-39
2022/11/28 02:36:32;;;;;;;;;;;7.00;99.90;;;;;;5157227;27;20285;-42
2022/11/28 02:39:27;;;;;;;;;;;7.00;99.90;;;;;;5157478;27;19950;-39
2022/11/28 02:41:56;;;;;;;;;;;7.00;99.90;;;;;;5078840;27;19916;-40
2022/11/28 02:44:29;;;;;;;;;;;7.00;99.90;;;;;;5154514;27;19915;-42
2022/11/28 02:46:58;;;;;;;;;;;7.00;99.90;;;;;;5157547;27;19915;-41
2022/11/28 02:49:33;;;;;;;;;;;7.00;99.90;;;;;;5157093;27;19907;-39
2022/11/28 02:52:01;;;;;;;;;;;7.00;99.90;;;;;;5157532;27;20066;-39
2022/11/28 02:54:26;;;;;;;;;;;7.00;99.90;;;;;;5157429;27;19915;-41
2022/11/28 02:56:53;;;;;;;;;;;7.00;99.90;;;;;;5156794;27;19960;-41
2022/11/28 02:59:28;;;;;;;;;;;7.00;99.90;;;;;;5157480;27;19922;-41
2022/11/28 03:01:54;;;;;;;;;;;7.00;99.90;;;;;;5157434;27;19998;-41
2022/11/28 03:04:27;;;;;;;;;;;7.00;99.90;;;;;;5156434;27;19950;-42
2022/11/28 03:07:00;;;;;;;;;;;7.10;99.90;;;;;;5157416;27;19921;-39
2022/11/28 03:09:43;;;;;;;;;;;7.10;99.90;;;;;;5157476;27;19915;-39
2022/11/28 03:12:14;;;;;;;;;;;7.10;99.90;;;;;;5156701;27;19929;-40
2022/11/28 03:14:39;;;;;;;;;;;7.10;99.90;;;;;;5157065;27;20291;-44
2022/11/28 03:17:08;;;;;;;;;;;7.10;99.90;;;;;;5156381;27;19915;-39
2022/11/28 03:19:36;;;;;;;;;;;7.10;99.90;;;;;;5157027;27;19953;-39
2022/11/28 03:22:23;;;;;;;;;;;7.10;99.90;;;;;;5156847;27;19911;-43
2022/11/28 03:25:06;;;;;;;;;;;7.10;99.90;;;;;;5156352;27;20370;-39
2022/11/28 03:27:44;;;;;;;;;;;7.10;99.90;;;;;;5157053;27;19926;-41
2022/11/28 03:30:16;;;;;;;;;;;7.20;99.90;;;;;;5157310;27;19911;-39
2022/11/28 03:32:43;;;;;;;;;;;7.20;99.90;;;;;;5156193;27;19937;-40
2022/11/28 03:35:15;;;;;;;;;;;7.10;99.90;;;;;;5157040;27;19915;-40
2022/11/28 03:37:46;;;;;;;;;;;7.20;99.90;;;;;;5156944;27;19915;-39
2022/11/28 03:40:14;;;;;;;;;;;7.20;99.90;;;;;;5155825;27;19965;-41
2022/11/28 03:42:41;;;;;;;;;;;7.20;99.90;;;;;;5156225;27;19915;-40
2022/11/28 03:45:16;;;;;;;;;;;7.20;99.90;;;;;;5156010;27;19907;-41
2022/11/28 03:47:46;;;;;;;;;;;7.20;99.90;;;;;;5156697;27;20437;-39
2022/11/28 03:50:18;;;;;;;;;;;7.30;99.90;;;;;;5156827;27;20197;-39
2022/11/28 03:52:52;;;;;;;;;;;7.30;99.90;;;;;;5155094;27;20013;-40
2022/11/28 03:55:31;;;;;;;;;;;7.20;99.90;;;;;;5156482;27;20308;-41
2022/11/28 03:57:58;;;;;;;;;;;7.30;99.90;;;;;;5156311;27;19913;-40
2022/11/28 04:00:24;;;;;;;;;;;7.30;99.90;;;;;;5155634;27;19930;-40
2022/11/28 04:02:54;;;;;;;;;;;7.30;99.90;;;;;;5156231;27;20354;-39
2022/11/28 04:05:39;;;;;;;;;;;7.30;99.90;;;;;;5156053;27;20385;-39
2022/11/28 04:08:16;;;;;;;;;;;7.40;99.90;;;;;;5155614;27;19978;-40
2022/11/28 04:10:51;;;;;;;;;;;7.40;99.90;;;;;;5155719;27;19915;-39
2022/11/28 04:13:26;;;;;;;;;;;7.40;99.90;;;;;;5155334;27;19915;-40
2022/11/28 04:15:57;;;;;;;;;;;7.40;99.90;;;;;;5155978;27;19915;-41
2022/11/28 04:18:28;;;;;;;;;;;7.40;99.90;;;;;;5156211;27;19907;-39
2022/11/28 04:21:05;;;;;;;;;;;7.40;99.90;;;;;;5154961;27;19963;-40
2022/11/28 04:23:32;;;;;;;;;;;7.50;99.90;;;;;;5155517;27;19926;-40
2022/11/28 04:26:03;;;;;;;;;;;7.50;99.90;;;;;;5155998;27;20010;-39
2022/11/28 04:28:30;;;;;;;;;;;7.50;99.90;;;;;;5155108;27;20372;-40
2022/11/28 04:30:57;;;;;;;;;;;7.50;99.90;;;;;;5155162;27;19915;-39
2022/11/28 04:33:24;;;;;;;;;;;7.50;99.90;;;;;;5155618;27;19911;-40
2022/11/28 04:35:51;;;;;;;;;;;7.60;99.90;;;;;;5154935;27;19923;-39
2022/11/28 04:38:18;;;;;;;;;;;7.60;99.90;;;;;;5155745;27;19943;-39
2022/11/28 04:40:50;;;;;;;;;;;7.60;99.90;;;;;;5155156;27;19915;-39
2022/11/28 04:43:37;;;;;;;;;;;7.60;99.90;;;;;;5154506;27;20365;-41
2022/11/28 04:46:17;;;;;;;;;;;7.60;99.90;;;;;;5155560;27;19910;-40
2022/11/28 04:48:43;;;;;;;;;;;7.60;99.90;;;;;;5154630;27;20254;-39
2022/11/28 04:51:23;;;;;;;;;;;7.70;99.90;;;;;;5154920;27;19930;-40
2022/11/28 04:54:08;;;;;;;;;;;7.70;99.90;;;;;;5155228;27;19947;-41
2022/11/28 04:56:40;;;;;;;;;;;7.70;99.90;;;;;;5153870;27;19915;-42
2022/11/28 04:59:07;;;;;;;;;;;7.70;99.90;;;;;;5155155;27;20007;-41
2022/11/28 05:01:32;;;;;;;;;;;7.70;99.90;;;;;;5154616;27;19911;-40
2022/11/28 05:03:58;;;;;;;;;;;7.70;99.90;;;;;;5154375;27;19911;-41
2022/11/28 05:06:25;;;;;;;;;;;7.70;99.90;;;;;;5155168;27;19907;-42
2022/11/28 05:08:50;;;;;;;;;;;7.70;99.90;;;;;;5154979;27;19948;-40
2022/11/28 05:11:16;;;;;;;;;;;7.70;99.90;;;;;;5153934;27;19953;-43
2022/11/28 05:13:41;;;;;;;;;;;7.80;99.90;;;;;;5155050;27;20395;-42
2022/11/28 05:16:08;;;;;;;;;;;7.80;99.90;;;;;;5154954;27;19915;-41
2022/11/28 05:18:33;;;;;;;;;;;7.80;99.90;;;;;;5153945;27;19914;-41
2022/11/28 05:21:00;;;;;;;;;;;7.80;99.90;;;;;;5154625;27;20196;-40
2022/11/28 05:23:25;;;;;;;;;;;7.80;99.90;;;;;;5154650;27;20404;-41
2022/11/28 05:25:51;;;;;;;;;;;7.80;99.90;;;;;;5154024;27;19915;-40
2022/11/28 05:28:16;;;;;;;;;;;7.90;99.90;;;;;;5154857;27;20388;-41
2022/11/28 05:30:42;;;;;;;;;;;7.90;99.90;;;;;;5153397;27;19911;-40
2022/11/28 05:33:07;;;;;;;;;;;7.90;99.90;;;;;;5154880;27;19914;-40
2022/11/28 05:35:32;;;;;;;;;;;7.90;99.90;;;;;;5154499;27;20350;-40
2022/11/28 05:37:58;;;;;;;;;;;7.90;99.90;;;;;;5153676;27;19907;-42
2022/11/28 05:40:23;;;;;;;;;;;7.90;99.90;;;;;;5154387;27;20366;-40
2022/11/28 05:42:49;;;;;;;;;;;7.90;99.90;;;;;;5154624;27;19922;-41
2022/11/28 05:45:14;;;;;;;;;;;7.90;99.90;;;;;;5153707;27;19907;-40
2022/11/28 05:47:40;;;;;;;;;;;7.90;99.90;;;;;;5154474;27;19914;-40
2022/11/28 05:50:06;;;;;;;;;;;7.90;99.90;;;;;;5154571;27;19908;-40
2022/11/28 05:52:31;;;;;;;;;;;7.90;99.90;;;;;;5153159;27;20010;-41
2022/11/28 05:54:58;;;;;;;;;;;8.00;99.90;;;;;;5154121;27;19918;-41
2022/11/28 05:57:24;;;;;;;;;;;7.90;99.90;;;;;;5154371;27;19916;-41
2022/11/28 05:59:49;;;;;;;;;;;7.90;99.90;;;;;;5153660;27;19956;-42
2022/11/28 06:02:15;;;;;;;;;;;8.00;99.90;;;;;;5154138;27;19919;-41
2022/11/28 06:04:40;;;;;;;;;;;7.90;99.90;;;;;;5158104;27;19911;-40
2022/11/28 06:07:06;;;;;;;;;;;8.00;99.90;;;;;;5160665;27;19907;-41
2022/11/28 06:09:31;;;;;;;;;;;8.00;99.90;;;;;;5161254;27;19986;-40
2022/11/28 06:11:57;;;;;;;;;;;8.00;99.90;;;;;;5160854;27;19962;-39
2022/11/28 06:14:22;;;;;;;;;;;7.90;99.90;;;;;;5160374;27;19929;-39
2022/11/28 06:16:48;;;;;;;;;;;8.00;99.90;;;;;;5160947;27;19946;-42
2022/11/28 06:19:13;;;;;;;;;;;7.90;99.90;;;;;;5160902;27;19911;-39
2022/11/28 06:21:38;;;;;;;;;;;8.00;99.90;;;;;;5159765;27;20420;-38
2022/11/28 06:24:04;;;;;;;;;;;8.00;99.90;;;;;;5161079;27;19907;-41
2022/11/28 06:26:30;;;;;;;;;;;8.00;99.90;;;;;;5161069;27;19911;-40
2022/11/28 06:28:55;;;;;;;;;;;7.90;99.90;;;;;;5159879;27;19965;-41
2022/11/28 06:31:26;;;;;;;;;;;8.00;99.90;;;;;;5160588;27;19920;-41
2022/11/28 06:33:52;;;;;;;;;;;8.00;99.90;;;;;;5160112;27;19907;-46
2022/11/28 06:36:18;;;;;;;;;;;8.00;99.90;;;;;;5160952;27;19915;-44
2022/11/28 06:38:44;;;;;;;;;;;8.00;99.90;;;;;;5160730;27;19911;-39
2022/11/28 06:41:10;;;;;;;;;;;8.00;99.90;;;;;;5159548;27;20270;-41
2022/11/28 06:43:36;;;;;;;;;;;8.00;99.90;;;;;;5160497;27;19921;-40
2022/11/28 06:46:02;;;;;;;;;;;8.00;99.90;;;;;;5160750;27;19911;-42
2022/11/28 06:48:28;;;;;;;;;;;8.00;99.90;;;;;;5159921;27;19907;-42
2022/11/28 06:51:00;;;;;;;;;;;8.00;99.90;;;;;;5160534;27;20423;-41
2022/11/28 06:53:25;;;;;;;;;;;8.00;99.90;;;;;;5160868;27;20425;-41
2022/11/28 06:55:51;;;;;;;;;;;8.00;99.90;;;;;;5159712;27;20002;-42
2022/11/28 06:58:16;;;;;;;;;;;8.00;99.90;;;;;;5160816;27;19907;-42
2022/11/28 07:00:42;;;;;;;;;;;8.00;99.90;;;;;;5159979;27;20009;-41
2022/11/28 07:03:07;;;;;;;;;;;8.00;99.90;;;;;;5160007;27;19961;-40
2022/11/28 07:05:33;;;;;;;;;;;8.00;99.90;;;;;;5160512;27;19907;-39
2022/11/28 07:07:58;;;;;;;;;;;8.00;99.90;;;;;;5160586;27;20315;-41
2022/11/28 07:10:24;;;;;;;;;;;8.00;99.90;;;;;;5159548;27;19919;-42
2022/11/28 07:12:53;;;;;;;;;;;8.00;99.90;;;;;;5160498;27;19911;-42
2022/11/28 07:15:19;;;;;;;;;;;8.00;99.90;;;;;;5159429;27;19945;-40
2022/11/28 07:17:44;;;;;;;;;;;8.00;99.90;;;;;;5156599;27;19951;-40
2022/11/28 07:20:11;;;;;;;;;;;8.00;99.90;;;;;;5156773;27;20401;-42
2022/11/28 07:22:36;;;;;;;;;;;8.00;99.90;;;;;;5157200;27;20309;-39
2022/11/28 07:25:02;;;;;;;;;;;8.10;99.90;;;;;;5156247;27;20354;-43
2022/11/28 07:27:27;;;;;;;;;;;8.00;99.90;;;;;;5157171;27;19907;-39
2022/11/28 07:29:53;;;;;;;;;;;8.00;99.90;;;;;;5156661;27;20304;-40
2022/11/28 07:32:18;;;;;;;;;;;8.00;99.90;;;;;;5156163;27;19951;-41
2022/11/28 07:34:44;;;;;;;;;;;8.00;99.90;;;;;;5156537;27;19975;-40
2022/11/28 07:37:09;;;;;;;;;;;8.00;99.90;;;;;;5155482;27;19923;-42
2022/11/28 07:39:35;;;;;;;;;;;8.10;99.90;;;;;;5156735;27;19914;-40
2022/11/28 07:42:00;;;;;;;;;;;8.10;99.90;;;;;;5156864;27;20559;-40
2022/11/28 07:44:25;;;;;;;;;;;8.10;99.90;;;;;;5155690;27;19950;-39
2022/11/28 07:46:51;;;;;;;;;;;8.10;99.90;;;;;;5156163;27;19918;-41
2022/11/28 07:49:17;;;;;;;;;;;8.10;99.90;;;;;;5156678;27;20282;-39
2022/11/28 07:51:42;;;;;;;;;;;8.10;99.90;;;;;;5154171;27;20362;-42
2022/11/28 07:54:08;;;;;;;;;;;8.10;99.90;;;;;;5156316;27;19907;-39
2022/11/28 07:56:34;;;;;;;;;;;8.10;99.90;;;;;;5156326;27;20353;-43
2022/11/28 07:59:00;;;;;;;;;;;8.10;99.90;;;;;;5155640;27;19907;-43
2022/11/28 08:01:27;;;;;;;;;;;8.10;99.90;;;;;;5155882;27;19933;-42
2022/11/28 08:03:53;;;;;;;;;;;8.10;99.90;;;;;;5156421;27;19907;-40
2022/11/28 08:06:19;;;;;;;;;;;8.10;99.90;;;;;;5155545;27;19907;-41
2022/11/28 08:08:46;;;;;;;;;;;8.10;99.90;;;;;;5156048;27;20373;-41
2022/11/28 08:11:12;;;;;;;;;;;8.10;99.90;;;;;;5155526;27;19919;-40
2022/11/28 08:13:38;;;;;;;;;;;8.10;99.90;;;;;;5155485;27;19907;-40
2022/11/28 08:16:05;;;;;;;;;;;8.10;99.90;;;;;;5156181;27;19919;-39
2022/11/28 08:18:30;;;;;;;;;;;8.10;99.90;;;;;;5156002;27;19915;-40
2022/11/28 08:21:16;;;;;;;;;;;8.20;99.90;;;;;;5154646;27;19919;-39
2022/11/28 08:23:44;;;;;;;;;;;8.20;99.90;;;;;;5155324;27;19915;-39
2022/11/28 08:26:12;;;;;;;;;;;8.10;99.90;;;;;;5155739;27;20369;-39
2022/11/28 08:28:37;;;;;;;;;;;8.20;99.90;;;;;;5154384;27;19914;-41
2022/11/28 08:31:10;;;;;;;;;;;8.20;99.90;;;;;;5154951;27;19998;-40
2022/11/28 08:33:35;;;;;;;;;;;8.10;99.90;;;;;;5154937;27;20010;-39
2022/11/28 08:36:04;;;;;;;;;;;8.20;99.90;;;;;;5155492;27;20429;-39
2022/11/28 08:38:30;;;;;;;;;;;8.20;99.90;;;;;;5155676;27;19911;-39
2022/11/28 08:40:59;;;;;;;;;;;8.20;99.90;;;;;;5154566;27;19911;-42
2022/11/28 08:43:25;;;;;;;;;;;8.20;99.90;;;;;;5155703;27;19907;-42
2022/11/28 08:45:50;;;;;;;;;;;8.20;99.90;;;;;;5155487;27;20331;-39
2022/11/28 08:48:16;;;;;;;;;;;8.20;99.90;;;;;;5154704;27;19911;-39
2022/11/28 08:50:48;;;;;;;;;;;8.20;99.90;;;;;;5155326;27;19914;-40
2022/11/28 08:53:13;;;;;;;;;;;8.20;99.90;;;;;;5154599;27;19923;-41
2022/11/28 08:55:43;;;;;;;;;;;8.20;99.90;;;;;;5154423;27;20293;-39
2022/11/28 08:58:09;;;;;;;;;;;8.20;99.90;;;;;;5155350;27;19997;-39
2022/11/28 09:00:34;;;;;;;;;;;8.30;99.90;;;;;;5171420;27;19961;-39
2022/11/28 09:03:00;;;;;;;;;;;8.20;99.90;;;;;;5154365;27;19907;-39
2022/11/28 09:05:27;;;;;;;;;;;8.20;99.90;;;;;;5155192;27;19914;-40
2022/11/28 09:07:53;;;;;;;;;;;8.30;99.90;;;;;;5155002;27;20371;-39
2022/11/28 09:10:18;;;;;;;;;;;8.30;99.90;;;;;;5135595;27;20399;-38
2022/11/28 09:12:44;;;;;;;;;;;8.30;99.90;;;;;;5155031;27;19907;-38
2022/11/28 09:15:09;;;;;;;;;;;8.30;99.90;;;;;;5154973;27;19906;-40
2022/11/28 09:17:35;;;;;;;;;;;8.20;99.90;;;;;;5152878;27;19919;-41
2022/11/28 09:20:00;;;;;;;;;;;8.30;99.90;;;;;;5153480;27;19911;-40
2022/11/28 09:22:27;;;;;;;;;;;8.30;99.90;;;;;;5153631;27;19918;-40
2022/11/28 09:24:52;;;;;;;;;;;8.30;99.90;;;;;;5152019;27;19915;-41
2022/11/28 09:27:18;;;;;;;;;;;8.30;99.90;;;;;;5154078;27;19907;-39
2022/11/28 09:29:43;;;;;;;;;;;8.30;99.90;;;;;;5153466;27;19956;-40
2022/11/28 09:32:09;;;;;;;;;;;8.30;99.90;;;;;;5154050;27;19951;-42
2022/11/28 09:34:34;;;;;;;;;;;8.30;99.90;;;;;;5153831;27;19911;-40
2022/11/28 09:37:00;;;;;;;;;;;8.40;99.90;;;;;;5152967;27;20285;-40
2022/11/28 09:39:25;;;;;;;;;;;8.40;99.90;;;;;;5153094;27;19907;-40
2022/11/28 09:41:55;;;;;;;;;;;8.40;99.90;;;;;;5153597;27;19913;-39
2022/11/28 09:44:29;;;;;;;;;;;8.40;99.90;;;;;;5150807;27;19958;-40
2022/11/28 09:46:59;;;;;;;;;;;8.40;99.90;;;;;;5153628;27;19964;-40
2022/11/28 09:49:30;;;;;;;;;;;8.40;99.90;;;;;;5154190;27;20377;-39
2022/11/28 09:51:59;;;;;;;;;;;8.40;99.90;;;;;;5152221;27;19923;-42
2022/11/28 09:54:39;;;;;;;;;;;8.30;99.90;;;;;;5152846;27;20361;-41
2022/11/28 09:57:11;;;;;;;;;;;8.40;99.90;;;;;;5153395;27;20267;-42
2022/11/28 09:59:37;;;;;;;;;;;8.40;99.90;;;;;;5152926;27;19907;-40
2022/11/28 10:02:11;;;;;;;;;;;8.40;99.90;;;;;;5154608;27;19936;-41
2022/11/28 10:04:41;;;;;;;;;;;8.40;99.90;;;;;;5151366;27;19911;-41
2022/11/28 10:07:14;;;;;;;;;;;8.40;99.90;;;;;;5152264;27;19951;-40
2022/11/28 10:09:48;;;;;;;;;;;8.40;99.90;;;;;;5153134;27;19907;-40
2022/11/28 10:12:13;;;;;;;;;;;8.40;99.90;;;;;;5152559;27;20161;-41
2022/11/28 10:14:52;;;;;;;;;;;8.40;99.90;;;;;;5153664;27;20442;-42
2022/11/28 10:17:41;;;;;;;;;;;8.40;99.90;;;;;;5151215;27;20029;-43
2022/11/28 10:20:21;;;;;;;;;;;8.40;99.90;;;;;;5139183;27;20302;-39
2022/11/28 10:22:49;;;;;;;;;;;8.50;99.90;;;;;;5153847;27;19911;-41
2022/11/28 10:25:20;;;;;;;;;;;8.40;99.90;;;;;;5154260;27;19911;-43
2022/11/28 10:27:46;;;;;;;;;;;8.50;99.90;;;;;;5153866;27;19959;-40
2022/11/28 10:30:19;;;;;;;;;;;8.50;99.90;;;;;;5154911;27;19990;-41
2022/11/28 10:32:48;;;;;;;;;;;8.50;99.90;;;;;;5154508;27;19907;-42
2022/11/28 10:35:13;;;;;;;;;;;8.50;99.90;;;;;;5153876;27;20373;-41
2022/11/28 10:37:39;;;;;;;;;;;8.50;99.90;;;;;;5154690;27;19929;-42
2022/11/28 10:40:26;;;;;;;;;;;8.60;99.90;;;;;;5154055;27;19915;-41
2022/11/28 10:43:00;;;;;;;;;;;8.60;99.90;;;;;;5154736;27;19907;-42
2022/11/28 10:45:33;;;;;;;;;;;8.60;99.90;;;;;;5154528;27;20342;-41
2022/11/28 10:48:17;;;;;;;;;;;8.60;99.90;;;;;;5154163;27;19945;-40
2022/11/28 10:51:01;;;;;;;;;;;8.60;99.90;;;;;;5156336;27;19966;-41
2022/11/28 10:53:45;;;;;;;;;;;8.60;99.90;;;;;;5158503;27;20329;-41
2022/11/28 10:56:23;;;;;;;;;;;8.60;99.90;;;;;;5157908;27;19992;-39
2022/11/28 10:59:11;;;;;;;;;;;8.60;99.90;;;;;;5157662;27;20286;-39
2022/11/28 11:01:38;;;;;;;;;;;8.60;99.90;;;;;;5139414;27;19914;-41
2022/11/28 11:04:04;;;;;;;;;;;8.60;99.90;;;;;;5158277;27;19919;-38
2022/11/28 11:06:29;;;;;;;;;;;8.60;99.90;;;;;;5158253;27;19934;-41
2022/11/28 11:08:55;;;;;;;;;;;8.70;99.90;;;;;;5157651;27;20661;-42
2022/11/28 11:11:28;;;;;;;;;;;8.70;99.90;;;;;;5158187;27;19911;-43
2022/11/28 11:14:00;;;;;;;;;;;8.70;99.90;;;;;;5157979;27;19907;-41
2022/11/28 11:16:44;;;;;;;;;;;8.70;99.90;;;;;;5157298;27;20373;-40
2022/11/28 11:19:21;;;;;;;;;;;8.70;99.90;;;;;;5158131;27;19907;-38
2022/11/28 11:21:57;;;;;;;;;;;8.70;99.90;;;;;;5157261;27;19937;-40
2022/11/28 11:24:23;;;;;;;;;;;8.80;99.90;;;;;;5156707;27;20389;-38
2022/11/28 11:26:48;;;;;;;;;;;8.70;99.90;;;;;;5156304;27;20018;-40
2022/11/28 11:29:29;;;;;;;;;;;8.70;99.90;;;;;;5157346;27;20392;-41
2022/11/28 11:31:57;;;;;;;;;;;8.70;99.90;;;;;;5157223;27;20307;-40
2022/11/28 11:34:22;;;;;;;;;;;8.80;99.90;;;;;;5156830;27;20378;-38
2022/11/28 11:36:49;;;;;;;;;;;8.80;99.90;;;;;;5152322;27;19926;-39
2022/11/28 11:39:17;;;;;;;;;;;8.80;99.90;;;;;;5154283;27;19907;-39
2022/11/28 11:41:49;;;;;;;;;;;8.80;99.90;;;;;;5156131;27;20333;-39
2022/11/28 11:44:19;;;;;;;;;;;8.80;99.90;;;;;;5155569;27;19922;-38
2022/11/28 11:46:54;;;;;;;;;;;8.80;99.90;;;;;;5155609;27;20388;-41
2022/11/28 11:49:40;;;;;;;;;;;8.80;99.90;;;;;;5156681;27;19914;-43
2022/11/28 11:52:13;;;;;;;;;;;8.80;99.90;;;;;;5155173;27;19922;-40
2022/11/28 11:54:51;;;;;;;;;;;8.80;99.90;;;;;;5155529;27;20360;-39
2022/11/28 11:57:20;;;;;;;;;;;8.80;99.90;;;;;;5135381;27;19915;-39
2022/11/28 11:59:53;;;;;;;;;;;8.80;99.90;;;;;;5135053;27;19911;-41
2022/11/28 12:02:38;;;;;;;;;;;8.80;99.90;;;;;;5143144;27;19942;-39
2022/11/28 12:05:14;;;;;;;;;;;8.90;99.90;;;;;;5134822;27;19946;-42
2022/11/28 12:07:59;;;;;;;;;;;8.80;99.90;;;;;;5135103;27;19976;-40
2022/11/28 12:10:28;;;;;;;;;;;8.80;99.90;;;;;;5135214;27;20407;-39
2022/11/28 12:12:54;;;;;;;;;;;8.80;99.90;;;;;;5134675;27;20354;-39
2022/11/28 12:15:28;;;;;;;;;;;8.70;99.90;;;;;;5135697;27;19919;-39
2022/11/28 12:18:04;;;;;;;;;;;8.80;99.90;;;;;;5137640;27;19919;-39
2022/11/28 12:20:48;;;;;;;;;;;8.80;99.90;;;;;;5155484;27;19915;-38
2022/11/28 12:23:28;;;;;;;;;;;8.70;99.90;;;;;;5155739;27;19911;-42
2022/11/28 12:26:12;;;;;;;;;;;8.80;99.90;;;;;;5154435;27;19955;-39
2022/11/28 12:28:43;;;;;;;;;;;8.80;99.90;;;;;;5155193;27;19907;-39
2022/11/28 12:31:15;;;;;;;;;;;8.80;99.90;;;;;;5155497;27;19914;-39
2022/11/28 12:33:51;;;;;;;;;;;8.80;99.90;;;;;;5155390;27;19914;-39
2022/11/28 12:36:34;;;;;;;;;;;8.70;99.90;;;;;;5155830;27;19938;-40
2022/11/28 12:39:08;;;;;;;;;;;8.80;99.90;;;;;;5155243;27;19911;-39
2022/11/28 12:41:49;;;;;;;;;;;8.80;99.90;;;;;;5155499;27;20043;-39
2022/11/28 12:44:14;;;;;;;;;;;8.80;99.90;;;;;;5155792;27;19907;-41
2022/11/28 12:46:42;;;;;;;;;;;8.90;99.90;;;;;;5154719;27;19914;-40
2022/11/28 12:49:19;;;;;;;;;;;8.80;99.90;;;;;;5155326;27;19907;-42
2022/11/28 12:51:45;;;;;;;;;;;8.80;99.90;;;;;;5154887;27;19927;-39
2022/11/28 12:54:13;;;;;;;;;;;8.80;99.90;;;;;;5154739;27;19915;-39
2022/11/28 12:56:42;;;;;;;;;;;8.80;99.90;;;;;;5154810;27;19979;-40
2022/11/28 12:59:23;;;;;;;;;;;8.90;99.90;;;;;;5154277;27;19921;-39
2022/11/28 13:01:57;;;;;;;;;;;8.90;99.90;;;;;;5153806;27;19911;-40
2022/11/28 13:04:48;;;;;;;;;;;8.90;99.90;;;;;;5155222;27;19914;-41
2022/11/28 13:07:46;;;;;;;;;;;8.90;99.90;;;;;;5154829;27;19907;-39
2022/11/28 13:10:15;;;;;;;;;;;8.90;99.90;;;;;;5097464;27;20389;-39
2022/11/28 13:12:44;;;;;;;;;;;8.90;99.90;;;;;;5153647;27;19928;-42
2022/11/28 13:15:13;;;;;;;;;;;8.90;99.90;;;;;;5153145;27;20165;-38
2022/11/28 13:17:38;;;;;;;;;;;8.90;99.90;;;;;;5148671;27;20269;-39
2022/11/28 13:20:27;;;;;;;;;;;8.90;99.90;;;;;;5152206;27;20014;-39
2022/11/28 13:22:58;;;;;;;;;;;8.90;99.90;;;;;;5131731;27;19908;-41
2022/11/28 13:25:30;;;;;;;;;;;8.90;99.90;;;;;;5142177;27;19959;-39
2022/11/28 13:28:00;;;;;;;;;;;8.90;99.90;;;;;;5152804;27;20290;-38
2022/11/28 13:30:27;;;;;;;;;;;8.90;99.90;;;;;;5152786;27;19918;-42
2022/11/28 13:32:52;;;;;;;;;;;8.80;99.90;;;;;;5154109;27;19946;-39
2022/11/28 13:35:18;;;;;;;;;;;8.90;99.90;;;;;;5153852;27;20336;-43
2022/11/28 13:37:44;;;;;;;;;;;8.90;99.90;;;;;;5152023;27;20378;-39
2022/11/28 13:40:21;;;;;;;;;;;8.90;99.90;;;;;;5154556;27;19907;-39
2022/11/28 13:42:46;;;;;;;;;;;8.90;99.90;;;;;;5154285;27;19907;-41
2022/11/28 13:45:18;;;;;;;;;;;8.90;99.90;;;;;;5153826;27;19930;-39
2022/11/28 13:47:44;;;;;;;;;;;9.00;99.90;;;;;;5154213;27;19907;-39
2022/11/28 13:50:24;;;;;;;;;;;8.90;99.90;;;;;;5153103;27;19934;-40
2022/11/28 13:53:04;;;;;;;;;;;8.90;99.90;;;;;;5154166;27;19918;-40
2022/11/28 13:55:36;;;;;;;;;;;8.90;99.90;;;;;;5154372;27;19930;-39
2022/11/28 13:58:15;;;;;;;;;;;8.90;99.90;;;;;;5153535;27;20387;-38
2022/11/28 14:00:41;;;;;;;;;;;8.90;99.90;;;;;;5155191;27;19911;-38
2022/11/28 14:03:16;;;;;;;;;;;8.90;99.90;;;;;;5154866;27;20002;-43
2022/11/28 14:05:42;;;;;;;;;;;8.80;99.90;;;;;;5153616;27;19914;-40
2022/11/28 14:08:20;;;;;;;;;;;8.80;99.90;;;;;;5153907;27;19915;-39
2022/11/28 14:10:51;;;;;;;;;;;8.90;99.90;;;;;;5153850;27;19911;-40
2022/11/28 14:13:22;;;;;;;;;;;8.90;99.90;;;;;;5153548;27;19914;-39
2022/11/28 14:16:03;;;;;;;;;;;8.90;99.90;;;;;;5153964;27;19907;-39
2022/11/28 14:18:47;;;;;;;;;;;8.90;99.90;;;;;;5153565;27;19911;-40
2022/11/28 14:21:25;;;;;;;;;;;8.90;99.90;;;;;;5154155;27;20395;-39
2022/11/28 14:23:51;;;;;;;;;;;8.90;99.90;;;;;;5154194;27;19942;-39
2022/11/28 14:26:25;;;;;;;;;;;8.90;99.90;;;;;;5156240;27;20452;-39
2022/11/28 14:28:51;;;;;;;;;;;8.90;99.90;;;;;;5141980;27;19923;-41
2022/11/28 14:31:19;;;;;;;;;;;8.90;99.90;;;;;;5157704;27;19913;-39
2022/11/28 14:33:45;;;;;;;;;;;8.80;99.90;;;;;;5151144;27;20342;-38
2022/11/28 14:36:28;;;;;;;;;;;8.80;99.90;;;;;;5156382;27;20001;-44
2022/11/28 14:39:03;;;;;;;;;;;8.80;99.90;;;;;;5156926;27;19911;-40
2022/11/28 14:41:28;;;;;;;;;;;8.80;99.90;;;;;;5156095;27;19980;-42
2022/11/28 14:44:14;;;;;;;;;;;8.80;99.90;;;;;;5156363;27;20465;-39
2022/11/28 14:46:59;;;;;;;;;;;8.80;99.90;;;;;;5156085;27;19979;-39